logo tempoitalia

Diretta Meteo Tampa-O Knight, Stati Uniti (USA)lunedì 31 agosto ore 02:35

Mappa
Sereno 25 °C Sereno 24 Ore: T.min 24 T.max 33
Ponente Est Km/h 7.4 Punto di rugiada: 24 °C Umidità: 94% Visibilità: 10 Km
Il sole sorge alle: 07:08 Il sole tramonta alle: 19:51
31 Agosto 2026 02:35 tempo osservato: Sereno Sereno 25 94 1015 vento: Nord E 7.4
31 Agosto 2026 02:15 tempo osservato: Sereno Sereno 25 94 1015 vento: Nord E/NE 7.4
31 Agosto 2026 01:55 tempo osservato: Sereno Sereno 25 94 1016 vento: Nord N 5.5
31 Agosto 2026 01:35 tempo osservato: Sereno Sereno 25 94 1016 vento: Nord E 7.4
31 Agosto 2026 01:15 tempo osservato: Sereno Sereno 25 94 1016 vento: Nord E 9.3
31 Agosto 2026 00:55 tempo osservato: Sereno Sereno 25 94 1016 vento: Nord E/NE 11.1
31 Agosto 2026 00:35 tempo osservato: Sereno Sereno 25 94 1016 vento: Nord E/NE 7.4
31 Agosto 2026 00:15 tempo osservato: Sereno Sereno 25 94 1016 vento: Nord E 9.3
30 Agosto 2026 23:55 tempo osservato: Sereno Sereno 25 94 1016 vento: Nord E 11.1
30 Agosto 2026 23:35 tempo osservato: Sereno Sereno 25 94 1016 vento: Nord E 11.1
30 Agosto 2026 23:15 tempo osservato: Sereno Sereno 25 94 1016 vento: Nord E 13
30 Agosto 2026 22:55 tempo osservato: Sereno Sereno 25 94 1016 vento: Nord E 13
30 Agosto 2026 22:35 tempo osservato: Sereno Sereno 25 94 1016 vento: Nord E 13
30 Agosto 2026 22:15 tempo osservato: Sereno Sereno 25 94 1016 vento: Nord E/NE 11.1
30 Agosto 2026 21:55 tempo osservato: Sereno Sereno 25 100 1016 vento: Nord NE 11.1
30 Agosto 2026 21:35 tempo osservato: Sereno Sereno 25 100 1016 vento: Nord NE 14.8
30 Agosto 2026 21:15 tempo osservato: Sereno Sereno 25 100 1016 vento: Nord NE 14.8
30 Agosto 2026 20:55 tempo osservato: Sereno Sereno 25 100 1016 vento: Nord E/NE 11.1
30 Agosto 2026 20:35 tempo osservato: Sereno Sereno 26 94 1016 vento: Nord E/NE 11.1
30 Agosto 2026 20:15 tempo osservato: Sereno Sereno 26 88 1016 vento: Nord E 9.3
30 Agosto 2026 19:55 tempo osservato: Sereno Sereno 26 83 1016 vento: Nord N 0
30 Agosto 2026 19:35 tempo osservato: Sereno Sereno 26 88 1016 vento: Nord N 5.5
30 Agosto 2026 19:15 tempo osservato: Sereno Sereno 26 83 1016 vento: Nord N 0
30 Agosto 2026 18:55 tempo osservato: Sereno Sereno 26 88 1015 vento: Nord S/SE 9.3
30 Agosto 2026 18:35 tempo osservato: Sereno Sereno 26 88 1015 vento: Nord SE 7.4
30 Agosto 2026 18:15 tempo osservato: Pioggia Pioggia 26 88 1015 vento: Nord N 0
30 Agosto 2026 17:55 tempo osservato: Pioggia Foschia Pioggia Foschia 26 88 1016 vento: Nord S/SE 16.7
30 Agosto 2026 17:35 tempo osservato: Pioggia Temporale nelle vicinanze Pioggia Temporale nelle vicinanze 25 94 1015 vento: Nord S/SE 16.7
30 Agosto 2026 17:15 tempo osservato: Temporale Foschia Temporale Foschia 26 88 1015 vento: Nord SE 20.3
30 Agosto 2026 16:55 tempo osservato: Temporale Temporale 27 88 1015 vento: Nord S 38.8
30 Agosto 2026 16:35 tempo osservato: Temporale nelle vicinanze Temporale nelle vicinanze 29 74 1015 vento: Nord S/SE 48.1
30 Agosto 2026 16:15 tempo osservato: Temporale nelle vicinanze Temporale nelle vicinanze 33 59 1014 vento: Nord S/SO 7.4
30 Agosto 2026 15:55 tempo osservato: Temporale nelle vicinanze Temporale nelle vicinanze 33 59 1015 vento: Nord N 9.3
30 Agosto 2026 15:35 tempo osservato: Sereno Sereno 33 62 1015 vento: Nord SO 9.3
30 Agosto 2026 15:15 tempo osservato: Sereno Sereno 33 62 1015 vento: Nord SO 11.1
30 Agosto 2026 14:55 tempo osservato: Sereno Sereno 33 62 1015 vento: Nord N 0
30 Agosto 2026 14:35 tempo osservato: Sereno Sereno 33 62 1015 vento: Nord S 7.4
30 Agosto 2026 14:15 tempo osservato: Molto Nuvoloso Molto Nuvoloso 32 66 1016 vento: Nord N 5.5
30 Agosto 2026 13:55 tempo osservato: Nuvoloso Nuvoloso 32 70 1016 vento: Nord N 7.4
30 Agosto 2026 13:35 tempo osservato: Nuvoloso Nuvoloso 32 70 1016 vento: Nord N 0
30 Agosto 2026 13:15 tempo osservato: Sereno Sereno 32 66 1016 vento: Nord N 0
30 Agosto 2026 12:55 tempo osservato: Poco Nuvoloso Poco Nuvoloso 31 74 1017 vento: Nord N 5.5
30 Agosto 2026 12:35 tempo osservato: Nuvoloso Nuvoloso 31 74 1017 vento: Nord N 5.5
30 Agosto 2026 12:15 tempo osservato: Poco Nuvoloso Poco Nuvoloso 30 79 1017 vento: Nord S 7.4
30 Agosto 2026 11:55 tempo osservato: Sereno Sereno 29 79 1017 vento: Nord N 0
30 Agosto 2026 11:35 tempo osservato: Nuvoloso Nuvoloso 30 79 1017 vento: Nord SE 13
30 Agosto 2026 11:15 tempo osservato: Nuvoloso Nuvoloso 29 83 1017 vento: Nord E/SE 11.1
30 Agosto 2026 10:55 tempo osservato: Nuvoloso Nuvoloso 30 79 1017 vento: Nord E/SE 13
30 Agosto 2026 10:35 tempo osservato: Poco Nuvoloso Poco Nuvoloso 29 83 1017 vento: Nord E 9.3
30 Agosto 2026 10:15 tempo osservato: Sereno Sereno 28 88 1017 vento: Nord E/NE 7.4
30 Agosto 2026 09:55 tempo osservato: Sereno Sereno 28 88 1017 vento: Nord E 11.1
30 Agosto 2026 09:35 tempo osservato: Sereno Sereno 27 88 1017 vento: Nord E 13
30 Agosto 2026 09:15 tempo osservato: Sereno Sereno 26 94 1017 vento: Nord E/NE 13
30 Agosto 2026 08:55 tempo osservato: Sereno Sereno 26 88 1017 vento: Nord E/NE 16.7
30 Agosto 2026 08:35 tempo osservato: Poco Nuvoloso Poco Nuvoloso 25 94 1017 vento: Nord E/NE 13
30 Agosto 2026 08:15 tempo osservato: Sereno Sereno 25 94 1017 vento: Nord E/NE 9.3
30 Agosto 2026 07:55 tempo osservato: Sereno Sereno 24 100 1017 vento: Nord NE 11.1
30 Agosto 2026 07:35 tempo osservato: Sereno Sereno 24 100 1017 vento: Nord NE 7.4
30 Agosto 2026 07:15 tempo osservato: Sereno Sereno 24 94 1016 vento: Nord N 5.5
30 Agosto 2026 06:55 tempo osservato: Sereno Sereno 24 100 1016 vento: Nord N 0
30 Agosto 2026 06:35 tempo osservato: Sereno Sereno 24 100 1016 vento: Nord N 5.5
30 Agosto 2026 06:15 tempo osservato: Sereno Sereno 24 100 1016 vento: Nord E/NE 9.3
30 Agosto 2026 05:55 tempo osservato: Sereno Sereno 24 100 1015 vento: Nord E/NE 7.4
30 Agosto 2026 05:35 tempo osservato: Sereno Sereno 24 100 1015 vento: Nord NE 9.3
30 Agosto 2026 05:15 tempo osservato: Sereno Sereno 24 100 1015 vento: Nord E/NE 11.1
30 Agosto 2026 04:55 tempo osservato: Sereno Sereno 24 100 1015 vento: Nord N 5.5
30 Agosto 2026 04:35 tempo osservato: Sereno Sereno 24 100 1015 vento: Nord N 5.5
30 Agosto 2026 04:15 tempo osservato: Sereno Sereno 24 100 1016 vento: Nord E 9.3
30 Agosto 2026 03:55 tempo osservato: Sereno Sereno 24 100 1016 vento: Nord E 13
30 Agosto 2026 03:35 tempo osservato: Sereno Sereno 24 100 1016 vento: Nord E/NE 11.1
30 Agosto 2026 03:15 tempo osservato: Sereno Sereno 24 100 1016 vento: Nord E 13
30 Agosto 2026 02:55 tempo osservato: Sereno Sereno 24 100 1016 vento: Nord E 9.3
30 Agosto 2026 02:35 tempo osservato: Sereno Sereno 24 100 1016 vento: Nord E 9.3